This is the latest recevied weather packets stored in our database for station/object R1CBW-13. If no packets are shown the sender has not sent any weather packets the latest 1 day(s).
| Time | Temp. | Humidity | Pressure | Rain* | Wind** | Luminosity | Snow |
|---|---|---|---|---|---|---|---|
| 1778050469 | 7.22° C | 53% | 1009.8 hPa | 0 mm | - | - | - |
| 1778050409 | 7.22° C | 54% | 1009.7 hPa | 0 mm | - | - | - |
| 1778050349 | 6.67° C | 54% | 1009.8 hPa | 0 mm | - | - | - |
| 1778050289 | 6.67° C | 54% | 1009.8 hPa | 0 mm | - | - | - |
| 1778050229 | 6.67° C | 54% | 1009.8 hPa | 0 mm | - | - | - |
| 1778050169 | 7.78° C | 54% | 1009.7 hPa | 0 mm | - | - | - |
| 1778050109 | 7.78° C | 54% | 1009.7 hPa | 0 mm | - | - | - |
| 1778050049 | 7.22° C | 55% | 1009.6 hPa | 0 mm | - | - | - |
| 1778049989 | 7.78° C | 54% | 1009.5 hPa | 0 mm | - | - | - |
| 1778049929 | 7.22° C | 56% | 1009.5 hPa | 0 mm | - | - | - |
| 1778049869 | 7.22° C | 56% | 1009.5 hPa | 0 mm | - | - | - |
| 1778049809 | 7.22° C | 56% | 1009.6 hPa | 0 mm | - | - | - |
| 1778049749 | 7.22° C | 57% | 1009.6 hPa | 0 mm | - | - | - |
| 1778049689 | 7.22° C | 57% | 1009.5 hPa | 0 mm | - | - | - |
| 1778049629 | 7.78° C | 55% | 1009.7 hPa | 0 mm | - | - | - |
| 1778049569 | 8.89° C | 56% | 1009.5 hPa | 0 mm | - | - | - |
| 1778049509 | 8.89° C | 55% | 1009.5 hPa | 0 mm | - | - | - |
| 1778049449 | 8.89° C | 56% | 1009.5 hPa | 0 mm | - | - | - |
| 1778048788 | 7.22° C | 60% | 1009.5 hPa | 0 mm | - | - | - |
| 1778047768 | 7.78° C | 58% | 1009.1 hPa | 0 mm | - | - | - |
| 1778047468 | 6.67° C | 61% | 1009.1 hPa | 0 mm | - | - | - |
| 1778047348 | 7.22° C | 59% | 1009 hPa | 0 mm | - | - | - |
| 1778047168 | 7.22° C | 61% | 1009 hPa | 0 mm | - | - | - |
| 1778047048 | 7.22° C | 60% | 1008.9 hPa | 0 mm | - | - | - |
| 1778046988 | 7.78° C | 59% | 1008.9 hPa | 0 mm | - | - | - |
* Rain latest hour (hover to see other rain measurements)
** Current wind speed in m/s (hover to see current wind gust speed)